Time;durP1;ratioP1;P1;durP2;ratioP2;P2;SDS_P1;SDS_P2;PMS_P1;PMS_P2;Temp;Humidity;BMP_temperature;BMP_pressure;BME280_temperature;BME280_humidity;BME280_pressure;Samples;Min_cycle;Max_cycle;Signal;HPM_P1;HPM_P2
2022/09/08 00:00:36;;;;;;;2.38;1.30;;;24.40;54.90;;;;;;5072675;28;20532;-61
2022/09/08 00:03:01;;;;;;;1.73;1.45;;;24.40;54.90;;;;;;5071635;28;20182;-61
2022/09/08 00:05:27;;;;;;;1.40;1.30;;;24.40;55.00;;;;;;5054999;28;20201;-61
2022/09/08 00:07:53;;;;;;;1.98;1.42;;;24.40;55.00;;;;;;5054691;28;20206;-61
2022/09/08 00:10:19;;;;;;;2.83;1.50;;;24.30;55.00;;;;;;5072127;28;20177;-61
2022/09/08 00:12:47;;;;;;;2.65;1.23;;;24.40;55.00;;;;;;5072642;28;20170;-61
2022/09/08 00:15:12;;;;;;;4.15;1.40;;;24.40;55.10;;;;;;5072593;28;20178;-61
2022/09/08 00:17:38;;;;;;;2.88;1.67;;;24.30;55.10;;;;;;5072120;28;20170;-61
2022/09/08 00:20:05;;;;;;;2.55;1.30;;;24.40;55.10;;;;;;5054731;28;20660;-62
2022/09/08 00:22:31;;;;;;;2.42;1.38;;;24.40;55.20;;;;;;5072343;28;20664;-61
2022/09/08 00:24:57;;;;;;;3.92;1.75;;;24.30;55.10;;;;;;5071536;28;20178;-61
2022/09/08 00:27:22;;;;;;;1.83;1.40;;;24.30;55.20;;;;;;5072454;28;20569;-61
2022/09/08 00:29:48;;;;;;;3.35;1.50;;;24.30;55.30;;;;;;5072158;28;20174;-61
2022/09/08 00:32:13;;;;;;;2.30;1.42;;;24.30;55.30;;;;;;5072024;28;20178;-61
2022/09/08 00:34:39;;;;;;;3.60;1.40;;;24.30;55.30;;;;;;5072327;28;20175;-61
2022/09/08 00:37:04;;;;;;;2.05;1.25;;;24.30;55.30;;;;;;5072109;28;20210;-61
2022/09/08 00:39:30;;;;;;;3.33;1.60;;;24.30;55.40;;;;;;5071605;28;20182;-61
2022/09/08 00:41:56;;;;;;;2.83;1.45;;;24.30;55.40;;;;;;5072264;28;20208;-61
2022/09/08 00:44:32;;;;;;;3.65;1.42;;;24.30;55.40;;;;;;5072145;28;20604;-61
2022/09/08 00:46:57;;;;;;;3.25;1.48;;;24.30;55.40;;;;;;5053756;28;20301;-61
2022/09/08 00:49:23;;;;;;;2.78;1.73;;;24.30;55.50;;;;;;5054710;28;20229;-61
2022/09/08 00:51:52;;;;;;;2.40;1.50;;;24.30;55.50;;;;;;5071453;28;20244;-61
2022/09/08 00:54:18;;;;;;;2.15;1.45;;;24.20;55.40;;;;;;5072328;28;20570;-61
2022/09/08 00:56:44;;;;;;;2.03;1.33;;;24.30;55.50;;;;;;5054002;28;20224;-61
2022/09/08 00:59:10;;;;;;;2.10;1.60;;;24.30;55.60;;;;;;5071401;28;20182;-61
2022/09/08 01:01:36;;;;;;;6.03;1.88;;;24.30;55.60;;;;;;5054525;28;20186;-61
2022/09/08 01:04:02;;;;;;;3.28;1.58;;;24.30;55.80;;;;;;5071937;28;20175;-61
2022/09/08 01:12:45;;;;;;;2.75;1.75;;;24.30;56.10;;;;;;5071998;28;20173;-61
2022/09/08 01:15:22;;;;;;;2.17;1.50;;;24.30;56.20;;;;;;5058837;28;20178;-61
2022/09/08 01:17:48;;;;;;;2.08;1.60;;;24.30;56.30;;;;;;5075508;28;20174;-61
2022/09/08 01:20:15;;;;;;;5.55;2.00;;;24.30;56.40;;;;;;5075212;28;20277;-61
2022/09/08 01:22:53;;;;;;;3.40;2.17;;;24.30;56.40;;;;;;5057778;28;20584;-61
2022/09/08 01:25:56;;;;;;;2.78;1.70;;;24.30;56.50;;;;;;5075460;28;20299;-61
2022/09/08 01:28:30;;;;;;;3.00;1.85;;;24.30;56.60;;;;;;5074620;28;20632;-61
2022/09/08 01:30:55;;;;;;;4.45;1.98;;;24.30;56.70;;;;;;5057580;28;20257;-61
2022/09/08 01:33:21;;;;;;;3.83;1.83;;;24.20;56.80;;;;;;5057598;28;20209;-61
2022/09/08 01:35:46;;;;;;;4.45;2.30;;;24.20;56.80;;;;;;5056552;28;20170;-61
2022/09/08 01:38:12;;;;;;;3.35;1.90;;;24.20;56.90;;;;;;5075309;28;20185;-61
2022/09/08 01:40:38;;;;;;;3.88;2.33;;;24.20;57.00;;;;;;5075137;28;20179;-61
2022/09/08 01:43:06;;;;;;;5.43;2.38;;;24.20;57.00;;;;;;5074582;28;20179;-61
2022/09/08 01:45:32;;;;;;;4.15;2.10;;;24.20;57.10;;;;;;5075101;28;20181;-61
2022/09/08 01:47:57;;;;;;;4.55;1.98;;;24.20;57.30;;;;;;5074890;28;20265;-61
2022/09/08 01:50:23;;;;;;;2.78;1.75;;;24.20;57.20;;;;;;5074373;28;20201;-61
2022/09/08 01:52:49;;;;;;;4.57;2.42;;;24.20;57.30;;;;;;5074934;28;20540;-61
2022/09/08 01:55:14;;;;;;;3.85;1.70;;;24.20;57.40;;;;;;5074246;28;20190;-61
2022/09/08 01:57:40;;;;;;;2.83;1.45;;;24.20;57.40;;;;;;5074862;28;20174;-61
2022/09/08 02:00:06;;;;;;;2.95;1.25;;;24.20;57.40;;;;;;5074723;28;20273;-61
2022/09/08 02:02:31;;;;;;;2.05;1.55;;;24.20;57.40;;;;;;5074115;28;20178;-61
2022/09/08 02:04:57;;;;;;;3.08;1.67;;;24.20;57.40;;;;;;5074717;28;20538;-61
2022/09/08 02:07:22;;;;;;;3.05;1.40;;;24.20;57.30;;;;;;5074628;28;20206;-61
2022/09/08 02:09:48;;;;;;;2.67;1.60;;;24.20;57.30;;;;;;5073914;28;20167;-60
2022/09/08 02:12:14;;;;;;;4.22;1.77;;;24.20;57.30;;;;;;5074915;28;20227;-61
2022/09/08 02:14:40;;;;;;;3.28;1.67;;;24.20;57.50;;;;;;5074787;28;20227;-61
2022/09/08 02:17:05;;;;;;;3.28;1.60;;;24.20;57.60;;;;;;5073988;28;20174;-61
2022/09/08 02:19:30;;;;;;;4.05;2.03;;;24.20;57.50;;;;;;5074662;28;20186;-61
2022/09/08 02:21:56;;;;;;;2.45;1.50;;;24.20;57.60;;;;;;5074344;28;20174;-61
2022/09/08 02:24:22;;;;;;;2.33;1.65;;;24.10;57.50;;;;;;5073418;28;20166;-61
2022/09/08 02:26:47;;;;;;;3.60;1.98;;;24.10;57.70;;;;;;5073872;28;20226;-61
2022/09/08 02:29:13;;;;;;;5.18;1.80;;;24.10;57.60;;;;;;5074531;28;20208;-61
2022/09/08 02:31:39;;;;;;;2.13;1.50;;;24.10;57.60;;;;;;5073678;28;20533;-61
2022/09/08 02:34:04;;;;;;;2.28;1.45;;;24.10;57.70;;;;;;5074381;28;20174;-61
2022/09/08 02:36:30;;;;;;;2.95;1.63;;;24.10;57.60;;;;;;5074251;28;20683;-61
2022/09/08 02:38:56;;;;;;;4.28;1.90;;;24.10;57.60;;;;;;5073218;28;20171;-61
2022/09/08 02:41:22;;;;;;;2.35;1.25;;;24.10;57.60;;;;;;5074407;28;20171;-61
2022/09/08 02:43:47;;;;;;;2.25;1.33;;;24.10;57.70;;;;;;5074268;28;20249;-61
2022/09/08 02:46:13;;;;;;;2.80;1.58;;;24.10;57.70;;;;;;5073389;28;20222;-61
2022/09/08 02:48:39;;;;;;;2.03;1.40;;;24.10;57.70;;;;;;5074131;28;20183;-61
2022/09/08 02:51:06;;;;;;;1.88;1.30;;;24.10;57.70;;;;;;5073775;28;20224;-60
2022/09/08 02:53:31;;;;;;;3.85;1.58;;;24.10;57.80;;;;;;5073092;28;20581;-61
2022/09/08 02:55:58;;;;;;;2.33;1.30;;;24.10;57.90;;;;;;5073898;28;20178;-61
2022/09/08 02:58:24;;;;;;;2.20;1.35;;;24.10;57.80;;;;;;5073447;28;20175;-61
2022/09/08 03:00:49;;;;;;;2.22;1.30;;;24.10;57.90;;;;;;5073412;28;20676;-61
2022/09/08 03:03:15;;;;;;;3.72;1.50;;;24.10;57.80;;;;;;5074010;28;20197;-61
2022/09/08 03:05:41;;;;;;;5.68;2.20;;;24.00;57.70;;;;;;5072857;28;20261;-61
2022/09/08 03:08:08;;;;;;;2.92;1.70;;;24.00;57.70;;;;;;5073522;28;20183;-61
2022/09/08 03:10:34;;;;;;;3.25;1.48;;;24.00;57.70;;;;;;5073775;28;20174;-60
2022/09/08 03:12:59;;;;;;;2.97;1.42;;;24.00;57.80;;;;;;5072794;28;20533;-61
2022/09/08 03:15:25;;;;;;;2.28;1.42;;;24.00;57.80;;;;;;5073353;28;20179;-61
2022/09/08 03:17:51;;;;;;;2.97;1.80;;;24.00;57.90;;;;;;5073231;28;20181;-61
2022/09/08 03:20:17;;;;;;;2.03;1.30;;;24.00;57.80;;;;;;5072793;28;20182;-62
2022/09/08 03:22:42;;;;;;;4.20;1.60;;;24.00;57.90;;;;;;5073476;28;20198;-61
2022/09/08 03:25:08;;;;;;;2.47;1.35;;;24.00;57.80;;;;;;5073111;28;20225;-61
2022/09/08 03:27:34;;;;;;;2.22;1.15;;;24.00;57.90;;;;;;5072605;28;20218;-61
2022/09/08 03:29:59;;;;;;;3.88;1.70;;;24.00;57.80;;;;;;5073246;28;20503;-61
2022/09/08 03:32:25;;;;;;;2.22;1.30;;;24.00;57.80;;;;;;5073293;28;20220;-61
2022/09/08 03:34:51;;;;;;;3.10;1.45;;;24.00;57.90;;;;;;5072357;28;20177;-61
2022/09/08 03:37:16;;;;;;;4.30;1.65;;;24.00;57.80;;;;;;5072359;28;20227;-61
2022/09/08 03:39:42;;;;;;;2.95;1.77;;;24.00;57.70;;;;;;5073318;28;20659;-61
2022/09/08 03:42:07;;;;;;;4.00;1.98;;;24.00;57.80;;;;;;5072142;28;20668;-61
2022/09/08 03:44:33;;;;;;;2.95;1.60;;;24.00;57.80;;;;;;5072975;28;20185;-61
2022/09/08 03:46:59;;;;;;;4.00;1.38;;;24.00;57.80;;;;;;5072818;28;20617;-61
2022/09/08 03:49:25;;;;;;;5.05;2.03;;;24.00;57.80;;;;;;5072144;28;20637;-61
2022/09/08 03:51:50;;;;;;;2.85;1.98;;;23.90;57.80;;;;;;5072617;28;20174;-61
2022/09/08 03:57:00;;;;;;;4.10;1.73;;;24.00;57.90;;;;;;5072052;28;20253;-61
2022/09/08 03:59:26;;;;;;;3.08;1.65;;;23.90;57.80;;;;;;5072811;28;20636;-61
2022/09/08 04:01:53;;;;;;;5.40;2.05;;;23.90;57.90;;;;;;5071936;28;20174;-61
2022/09/08 04:04:20;;;;;;;3.22;1.67;;;23.90;57.80;;;;;;5072744;28;20190;-61
2022/09/08 04:06:46;;;;;;;2.28;1.60;;;23.90;57.90;;;;;;5072520;28;20229;-61
2022/09/08 04:09:11;;;;;;;3.20;1.92;;;23.90;57.90;;;;;;5072004;28;20167;-61
2022/09/08 04:11:37;;;;;;;2.90;1.63;;;23.90;57.90;;;;;;5072576;28;20185;-61
2022/09/08 04:14:02;;;;;;;2.63;1.60;;;23.90;57.90;;;;;;5072473;28;20175;-61
2022/09/08 04:16:28;;;;;;;2.53;1.25;;;23.90;57.90;;;;;;5071934;28;20181;-61
2022/09/08 04:18:53;;;;;;;2.35;1.40;;;23.90;58.00;;;;;;5072377;28;20220;-61
2022/09/08 04:21:19;;;;;;;2.92;1.52;;;23.90;58.00;;;;;;5072827;28;20166;-61
2022/09/08 04:23:44;;;;;;;3.47;1.60;;;23.90;58.00;;;;;;5071808;28;20174;-61
2022/09/08 04:26:11;;;;;;;2.55;1.52;;;23.90;58.10;;;;;;5072427;28;20591;-61
2022/09/08 04:28:37;;;;;;;2.63;1.67;;;23.90;58.10;;;;;;5072374;28;20182;-61
2022/09/08 04:31:05;;;;;;;3.30;1.50;;;23.90;58.10;;;;;;5071599;28;20183;-61
2022/09/08 04:33:31;;;;;;;4.55;2.08;;;23.90;58.10;;;;;;5072497;28;20178;-61
2022/09/08 04:35:56;;;;;;;2.75;1.75;;;23.90;58.20;;;;;;5072460;28;20535;-61
2022/09/08 04:38:22;;;;;;;2.88;1.55;;;23.90;58.30;;;;;;5071694;28;20182;-61
2022/09/08 04:40:47;;;;;;;2.90;2.03;;;23.90;58.30;;;;;;5072378;28;20179;-62
2022/09/08 04:43:13;;;;;;;2.88;1.48;;;23.90;58.30;;;;;;5072350;28;20229;-62
2022/09/08 04:45:38;;;;;;;3.05;1.60;;;23.80;58.30;;;;;;5071425;28;20679;-62
2022/09/08 04:48:04;;;;;;;3.33;1.67;;;23.80;58.30;;;;;;5073385;28;20217;-62
2022/09/08 04:50:29;;;;;;;4.22;1.65;;;23.90;58.40;;;;;;5076289;28;20178;-61
2022/09/08 04:52:55;;;;;;;3.53;1.50;;;23.80;58.40;;;;;;5075525;28;20690;-62
2022/09/08 04:55:20;;;;;;;2.85;1.70;;;23.80;58.40;;;;;;5076248;28;20174;-62
2022/09/08 04:57:46;;;;;;;2.90;1.63;;;23.80;58.40;;;;;;5075913;28;20166;-61
2022/09/08 05:00:13;;;;;;;2.65;1.88;;;23.80;58.40;;;;;;5075302;28;20565;-62
2022/09/08 05:02:38;;;;;;;3.78;1.90;;;23.80;58.40;;;;;;5075754;28;20182;-62
2022/09/08 05:05:04;;;;;;;3.40;1.77;;;23.80;58.40;;;;;;5075102;28;20174;-62
2022/09/08 05:07:30;;;;;;;3.63;1.70;;;23.80;58.50;;;;;;5075596;28;20214;-62
2022/09/08 05:09:55;;;;;;;3.10;1.77;;;23.80;58.60;;;;;;5075671;28;20177;-61
2022/09/08 05:12:21;;;;;;;3.55;1.73;;;23.80;58.60;;;;;;5075178;28;20975;-62
2022/09/08 05:14:46;;;;;;;3.50;2.08;;;23.80;58.60;;;;;;5075405;28;20189;-62
2022/09/08 05:17:12;;;;;;;3.53;1.73;;;23.80;58.50;;;;;;5075688;28;20572;-62
2022/09/08 05:19:37;;;;;;;2.88;1.98;;;23.80;58.60;;;;;;5074945;28;20616;-63
2022/09/08 05:22:03;;;;;;;4.13;1.75;;;23.80;58.50;;;;;;5075701;28;20182;-63
2022/09/08 05:24:28;;;;;;;4.18;1.88;;;23.80;58.50;;;;;;5075710;28;20170;-62
2022/09/08 05:26:54;;;;;;;3.88;1.67;;;23.80;58.60;;;;;;5074451;28;20313;-61
2022/09/08 05:29:19;;;;;;;2.63;1.92;;;23.70;58.60;;;;;;5075510;28;20181;-61
2022/09/08 05:31:45;;;;;;;4.97;2.28;;;23.70;58.60;;;;;;5075050;28;20223;-61
2022/09/08 05:34:10;;;;;;;2.72;1.42;;;23.80;58.60;;;;;;5074851;28;20182;-62
2022/09/08 05:36:36;;;;;;;3.90;1.73;;;23.70;58.50;;;;;;5075418;28;20171;-62
2022/09/08 05:39:03;;;;;;;3.33;1.40;;;23.70;58.50;;;;;;5075145;28;20180;-62
2022/09/08 05:41:29;;;;;;;2.83;1.42;;;23.70;58.50;;;;;;5074620;28;20186;-62
2022/09/08 05:43:55;;;;;;;3.55;1.77;;;23.70;58.50;;;;;;5075141;28;20198;-62
2022/09/08 05:46:21;;;;;;;3.65;1.63;;;23.70;58.50;;;;;;5075157;28;20715;-62
2022/09/08 05:48:46;;;;;;;4.78;2.15;;;23.70;58.50;;;;;;5074391;28;20170;-62
2022/09/08 05:51:15;;;;;;;3.63;1.70;;;23.70;58.50;;;;;;5075268;28;20176;-62
2022/09/08 05:53:41;;;;;;;2.83;1.77;;;23.70;58.50;;;;;;5075136;28;20198;-62
2022/09/08 05:56:07;;;;;;;3.35;1.40;;;23.70;58.50;;;;;;5074209;28;20202;-62
2022/09/08 05:58:33;;;;;;;3.30;1.33;;;23.70;58.60;;;;;;5074932;28;20231;-62
2022/09/08 06:01:07;;;;;;;2.47;1.50;;;23.70;58.50;;;;;;5074018;28;20175;-62
2022/09/08 06:03:32;;;;;;;2.05;1.42;;;23.70;58.50;;;;;;5074028;28;20536;-62
2022/09/08 06:06:02;;;;;;;4.70;1.70;;;23.70;58.50;;;;;;5074743;28;20257;-61
2022/09/08 06:08:28;;;;;;;2.13;1.40;;;23.60;59.20;;;;;;5074158;28;20205;-62
2022/09/08 06:10:53;;;;;;;3.30;1.70;;;23.70;58.50;;;;;;5074447;28;20637;-61
2022/09/08 06:13:22;;;;;;;2.42;1.33;;;23.70;58.50;;;;;;5074807;28;20185;-61
2022/09/08 06:15:48;;;;;;;2.65;1.88;;;23.70;58.60;;;;;;5074060;28;20178;-62
2022/09/08 06:18:14;;;;;;;3.30;1.58;;;23.70;58.60;;;;;;5074864;28;20180;-62
2022/09/08 06:20:40;;;;;;;2.28;1.45;;;23.60;58.50;;;;;;5074702;28;20185;-62
2022/09/08 06:23:06;;;;;;;2.63;1.67;;;23.70;58.60;;;;;;5073806;28;20166;-62
2022/09/08 06:25:37;;;;;;;3.53;1.63;;;23.60;58.50;;;;;;5074352;28;20230;-62
2022/09/08 06:28:34;;;;;;;5.03;1.90;;;23.70;58.50;;;;;;5074183;28;20549;-61
2022/09/08 06:31:00;;;;;;;3.00;1.65;;;23.60;58.50;;;;;;5073779;28;20265;-61
2022/09/08 06:33:33;;;;;;;1.95;1.48;;;23.60;58.50;;;;;;5056610;28;20600;-61
2022/09/08 06:36:05;;;;;;;3.05;1.85;;;23.60;58.50;;;;;;5074395;28;20564;-61
2022/09/08 06:38:41;;;;;;;3.28;1.83;;;23.60;58.60;;;;;;5055588;28;20179;-62
2022/09/08 06:41:10;;;;;;;6.78;2.22;;;23.60;58.70;;;;;;5057601;28;20224;-61
2022/09/08 06:43:56;;;;;;;3.80;2.10;;;23.60;58.60;;;;;;5073227;28;20750;-62
2022/09/08 06:46:35;;;;;;;5.57;2.00;;;23.60;58.70;;;;;;5056694;28;20237;-61
2022/09/08 06:49:01;;;;;;;4.68;2.55;;;23.60;58.70;;;;;;5073900;28;20206;-62
2022/09/08 06:51:38;;;;;;;5.22;2.72;;;23.60;58.90;;;;;;5073221;28;20174;-61
2022/09/08 06:54:12;;;;;;;4.22;2.22;;;23.60;59.00;;;;;;5073732;28;20662;-61
2022/09/08 06:56:52;;;;;;;4.85;1.92;;;23.60;59.00;;;;;;5074061;28;20198;-61
2022/09/08 06:59:34;;;;;;;6.30;2.33;;;23.60;59.00;;;;;;5072969;28;20663;-62
2022/09/08 07:02:26;;;;;;;3.33;1.90;;;23.60;59.00;;;;;;5055726;28;20261;-62
2022/09/08 07:04:59;;;;;;;5.07;1.80;;;23.60;58.80;;;;;;5072941;28;20178;-61
2022/09/08 07:07:39;;;;;;;4.65;2.15;;;23.60;59.10;;;;;;5055877;28;20309;-62
2022/09/08 07:10:26;;;;;;;2.97;1.77;;;23.60;58.90;;;;;;5055914;28;20179;-62
2022/09/08 07:13:07;;;;;;;3.92;1.52;;;23.60;58.80;;;;;;5054127;28;20178;-62
2022/09/08 07:15:42;;;;;;;6.05;1.90;;;23.60;58.80;;;;;;5073336;28;20267;-62
2022/09/08 07:18:36;;;;;;;4.60;1.75;;;23.60;58.80;;;;;;5055280;28;20645;-63
2022/09/08 07:21:20;;;;;;;3.75;1.80;;;23.60;58.90;;;;;;5070844;28;20216;-63
2022/09/08 07:23:46;;;;;;;4.05;2.03;;;23.60;58.80;;;;;;5073272;28;20213;-62
2022/09/08 07:26:19;;;;;;;4.50;2.10;;;23.60;58.80;;;;;;5054498;28;20253;-64
2022/09/08 07:28:47;;;;;;;3.60;1.67;;;23.60;58.80;;;;;;5054981;28;20690;-62
2022/09/08 07:31:19;;;;;;;4.28;1.95;;;23.60;58.80;;;;;;5055461;28;20625;-63
2022/09/08 07:33:45;;;;;;;3.58;1.83;;;23.60;58.80;;;;;;5054650;28;20629;-62
2022/09/08 07:36:40;;;;;;;3.28;1.55;;;23.60;59.30;;;;;;5055423;28;20225;-62
2022/09/08 07:39:21;;;;;;;7.25;2.10;;;23.60;58.80;;;;;;5072728;28;20208;-62
2022/09/08 07:41:59;;;;;;;5.55;2.00;;;23.60;58.90;;;;;;5054264;28;20185;-62
2022/09/08 07:44:24;;;;;;;5.63;2.20;;;23.60;58.80;;;;;;5072936;28;20645;-63
2022/09/08 07:47:14;;;;;;;3.30;1.45;;;23.60;59.00;;;;;;5077784;28;20266;-62
2022/09/08 07:49:52;;;;;;;2.47;1.80;;;23.50;59.00;;;;;;5059328;28;20173;-62
2022/09/08 07:52:37;;;;;;;2.75;1.77;;;23.50;59.00;;;;;;5093259;28;20173;-62
2022/09/08 07:55:16;;;;;;;3.83;2.08;;;23.50;59.10;;;;;;5061481;28;20166;-62
2022/09/08 07:58:13;;;;;;;3.78;1.90;;;23.50;59.10;;;;;;5072630;28;20170;-62
2022/09/08 08:01:00;;;;;;;3.42;2.10;;;23.50;59.10;;;;;;5055414;28;20186;-62
2022/09/08 08:03:36;;;;;;;3.63;1.95;;;23.50;59.10;;;;;;5083925;28;20540;-62
2022/09/08 08:06:10;;;;;;;3.45;2.25;;;23.50;59.10;;;;;;5092701;28;20696;-62
2022/09/08 08:08:45;;;;;;;4.03;2.08;;;23.50;59.10;;;;;;5074452;28;20175;-62
2022/09/08 08:11:18;;;;;;;2.38;1.90;;;23.50;59.10;;;;;;5093017;28;20242;-62
2022/09/08 08:14:01;;;;;;;2.90;1.63;;;23.50;59.10;;;;;;5075022;28;20181;-62
2022/09/08 08:16:33;;;;;;;2.13;1.60;;;23.50;59.10;;;;;;5091943;28;20185;-62
2022/09/08 08:19:09;;;;;;;2.85;2.08;;;23.50;59.10;;;;;;5074880;28;20193;-62
2022/09/08 08:21:37;;;;;;;5.93;1.80;;;23.50;59.10;;;;;;5034775;28;20210;-62
2022/09/08 08:24:28;;;;;;;4.03;2.13;;;23.50;59.10;;;;;;5054742;28;20566;-62
2022/09/08 08:27:02;;;;;;;2.90;1.60;;;23.50;59.00;;;;;;5055215;28;20230;-62
2022/09/08 08:29:47;;;;;;;2.90;2.13;;;23.50;59.00;;;;;;5055869;28;20648;-62
2022/09/08 08:32:27;;;;;;;2.13;1.73;;;23.50;59.00;;;;;;5056751;28;20171;-62
2022/09/08 08:34:57;;;;;;;2.53;1.73;;;23.50;59.10;;;;;;5055285;28;20179;-62
2022/09/08 08:37:29;;;;;;;2.65;1.70;;;23.50;58.90;;;;;;5055684;28;20171;-62
2022/09/08 08:39:55;;;;;;;3.33;1.80;;;23.50;58.90;;;;;;5055499;28;20163;-62
2022/09/08 08:42:24;;;;;;;3.45;2.50;;;23.50;58.90;;;;;;5055451;28;20207;-62
2022/09/08 08:45:01;;;;;;;2.88;2.00;;;23.50;59.00;;;;;;5055342;28;20177;-62
2022/09/08 08:47:39;;;;;;;3.03;2.05;;;23.50;59.00;;;;;;5056233;28;20746;-62
2022/09/08 08:50:27;;;;;;;3.70;2.08;;;23.50;59.00;;;;;;5054253;28;20659;-62
2022/09/08 08:53:04;;;;;;;2.63;2.10;;;23.50;59.00;;;;;;5056110;28;20543;-62
2022/09/08 08:55:48;;;;;;;3.40;2.50;;;23.50;59.10;;;;;;5092872;28;20684;-62
2022/09/08 08:58:43;;;;;;;3.05;2.53;;;23.50;59.10;;;;;;5095749;28;20192;-62
2022/09/08 09:01:31;;;;;;;3.72;3.40;;;23.50;59.10;;;;;;5078246;28;20265;-62
2022/09/08 09:04:16;;;;;;;3.50;3.10;;;23.50;59.20;;;;;;5077991;28;20184;-62
2022/09/08 09:07:12;;;;;;;3.88;3.35;;;23.50;59.20;;;;;;5079583;28;20209;-61
2022/09/08 09:09:50;;;;;;;3.50;3.17;;;23.50;59.20;;;;;;5096288;28;20221;-61
2022/09/08 09:12:40;;;;;;;4.35;3.95;;;23.50;59.10;;;;;;5077561;28;20185;-61
2022/09/08 09:15:33;;;;;;;5.53;3.40;;;23.60;59.20;;;;;;5078034;28;20178;-62
2022/09/08 09:18:04;;;;;;;4.15;3.28;;;23.60;59.10;;;;;;5096162;28;20158;-62
2022/09/08 09:20:53;;;;;;;5.10;3.35;;;23.60;59.10;;;;;;5077315;28;20539;-62
2022/09/08 09:24:03;;;;;;;3.63;3.20;;;23.70;59.00;;;;;;5096230;28;20195;-62
2022/09/08 09:26:33;;;;;;;4.28;3.05;;;23.70;59.00;;;;;;5062435;28;20225;-62
2022/09/08 09:29:08;;;;;;;6.03;3.05;;;23.70;59.10;;;;;;5078130;28;20532;-62
2022/09/08 09:31:44;;;;;;;3.63;2.70;;;23.70;59.20;;;;;;5095570;28;20173;-61
2022/09/08 09:34:31;;;;;;;3.13;2.70;;;23.70;59.00;;;;;;5075902;28;20643;-61
2022/09/08 09:37:15;;;;;;;5.47;2.80;;;23.70;58.90;;;;;;5095647;28;20174;-61
2022/09/08 09:40:08;;;;;;;5.45;3.90;;;23.70;59.00;;;;;;5094668;28;20582;-61
2022/09/08 09:42:42;;;;;;;3.90;2.95;;;23.70;59.10;;;;;;5095596;28;20625;-61
2022/09/08 09:45:40;;;;;;;4.00;2.85;;;23.70;59.10;;;;;;5078070;28;20169;-61
2022/09/08 09:48:08;;;;;;;3.63;3.00;;;23.70;59.20;;;;;;5076419;28;20206;-63
2022/09/08 09:51:07;;;;;;;7.25;2.67;;;23.70;59.40;;;;;;5095582;28;20181;-61
2022/09/08 09:53:50;;;;;;;4.68;2.72;;;23.60;59.30;;;;;;5074597;28;20239;-61
2022/09/08 09:56:40;;;;;;;5.32;2.70;;;23.60;59.30;;;;;;5057190;28;20265;-61
2022/09/08 09:59:25;;;;;;;5.25;2.58;;;23.60;59.40;;;;;;5075150;28;20193;-61
2022/09/08 10:02:12;;;;;;;3.97;2.38;;;23.60;59.60;;;;;;5074234;28;20179;-61
2022/09/08 10:05:02;;;;;;;4.43;2.55;;;23.60;59.70;;;;;;5059405;28;20174;-61
2022/09/08 10:07:46;;;;;;;2.72;2.03;;;23.60;59.80;;;;;;5056381;28;20276;-61
2022/09/08 10:10:36;;;;;;;3.60;2.20;;;23.70;59.80;;;;;;5057325;28;20167;-61
2022/09/08 10:13:26;;;;;;;3.03;2.13;;;23.60;59.80;;;;;;5074791;28;20241;-61
2022/09/08 10:16:31;;;;;;;4.70;2.30;;;23.70;59.60;;;;;;5059055;28;20177;-62
2022/09/08 10:19:15;;;;;;;2.92;2.00;;;23.60;59.60;;;;;;5056662;28;20253;-61
2022/09/08 10:21:44;;;;;;;4.57;2.00;;;23.60;59.60;;;;;;5075692;28;20197;-61
2022/09/08 10:24:29;;;;;;;5.43;2.20;;;23.60;59.50;;;;;;5074748;28;20332;-62
2022/09/08 10:27:25;;;;;;;3.17;1.67;;;23.60;59.60;;;;;;5074113;28;20246;-61
2022/09/08 10:30:15;;;;;;;3.75;1.88;;;23.70;59.50;;;;;;5073368;28;20744;-61
2022/09/08 10:32:41;;;;;;;3.60;1.67;;;23.70;59.30;;;;;;5074401;28;20560;-61
2022/09/08 10:35:25;;;;;;;2.38;1.50;;;23.80;59.20;;;;;;5074375;28;20177;-61
2022/09/08 10:38:10;;;;;;;3.15;1.60;;;23.90;59.10;;;;;;5073609;28;20165;-61
2022/09/08 10:40:47;;;;;;;3.38;1.80;;;23.90;59.00;;;;;;5074205;28;20174;-61
2022/09/08 10:43:34;;;;;;;4.07;1.83;;;24.00;59.20;;;;;;5073783;28;20210;-62
2022/09/08 10:46:26;;;;;;;2.63;1.80;;;24.00;59.20;;;;;;5073652;28;20182;-61
2022/09/08 10:49:11;;;;;;;2.20;1.60;;;24.00;59.20;;;;;;5058958;28;20222;-61
2022/09/08 10:51:36;;;;;;;4.88;2.17;;;24.00;59.20;;;;;;5055723;28;20174;-61
2022/09/08 10:54:17;;;;;;;3.88;1.77;;;24.00;59.20;;;;;;5080121;28;20200;-65
2022/09/08 10:56:43;;;;;;;3.72;1.55;;;24.00;59.00;;;;;;5093306;28;20169;-65
2022/09/08 10:59:21;;;;;;;4.35;1.58;;;24.00;59.10;;;;;;5077826;28;20207;-66
2022/09/08 11:02:20;;;;;;;4.20;2.05;;;24.00;59.00;;;;;;5093760;28;20193;-66
2022/09/08 11:05:05;;;;;;;4.25;1.80;;;24.00;58.90;;;;;;5074985;28;20177;-67
2022/09/08 11:07:30;;;;;;;2.92;1.60;;;24.00;58.90;;;;;;5093991;28;20217;-65
2022/09/08 11:09:56;;;;;;;2.45;1.25;;;24.00;59.00;;;;;;5093598;28;20222;-66
2022/09/08 11:12:52;;;;;;;2.65;1.40;;;24.00;59.60;;;;;;5093140;28;20178;-66
2022/09/08 11:15:33;;;;;;;2.53;1.33;;;24.00;59.10;;;;;;5093802;28;20243;-66
2022/09/08 11:18:16;;;;;;;3.03;1.63;;;24.00;59.10;;;;;;5075128;28;20644;-66
2022/09/08 11:20:47;;;;;;;3.08;1.40;;;24.10;58.90;;;;;;5093613;28;20260;-66
2022/09/08 11:23:20;;;;;;;2.67;1.40;;;24.20;58.80;;;;;;5093533;28;20708;-66
2022/09/08 11:26:22;;;;;;;2.22;1.35;;;24.30;58.50;;;;;;5074326;28;20222;-66
2022/09/08 11:29:06;;;;;;;4.95;1.35;;;24.40;58.50;;;;;;5093400;28;20188;-65
2022/09/08 11:32:02;;;;;;;2.63;1.40;;;24.40;58.40;;;;;;5077683;28;20162;-65
2022/09/08 11:35:03;;;;;;;3.30;1.40;;;24.40;58.60;;;;;;5079725;28;20273;-65
2022/09/08 11:37:28;;;;;;;4.13;1.45;;;24.30;58.60;;;;;;5078275;28;20211;-65
2022/09/08 11:40:30;;;;;;;3.20;1.55;;;24.30;58.60;;;;;;5092577;28;20569;-66
2022/09/08 11:43:11;;;;;;;2.97;1.77;;;24.20;58.60;;;;;;5074876;28;20666;-66
2022/09/08 11:45:50;;;;;;;4.65;1.75;;;24.30;58.50;;;;;;5076365;28;20177;-66
2022/09/08 11:48:37;;;;;;;1.67;1.42;;;24.20;58.30;;;;;;5074946;28;20209;-66
2022/09/08 11:51:22;;;;;;;2.60;1.30;;;24.20;58.30;;;;;;5093097;28;20166;-65
2022/09/08 11:54:03;;;;;;;2.42;1.30;;;24.20;58.30;;;;;;5088173;28;20167;-65
2022/09/08 11:57:01;;;;;;;3.40;1.35;;;24.10;58.20;;;;;;5072709;28;20158;-65
2022/09/08 11:59:54;;;;;;;2.05;1.40;;;24.10;58.30;;;;;;5056999;28;20190;-65
2022/09/08 12:02:49;;;;;;;2.25;1.50;;;24.10;58.20;;;;;;5057149;28;20265;-65
2022/09/08 12:05:20;;;;;;;4.15;2.00;;;24.10;58.10;;;;;;5056812;28;20185;-65
2022/09/08 12:07:57;;;;;;;6.25;1.77;;;24.00;57.90;;;;;;5053464;28;20706;-64
2022/09/08 12:10:46;;;;;;;3.25;1.92;;;24.00;57.80;;;;;;5072733;28;20288;-65
2022/09/08 12:13:18;;;;;;;3.17;1.20;;;24.20;57.60;;;;;;5054935;28;20268;-65
2022/09/08 12:16:25;;;;;;;2.47;1.65;;;24.30;57.20;;;;;;5071675;28;20179;-66
2022/09/08 12:19:05;;;;;;;3.53;1.58;;;24.40;57.00;;;;;;4994209;28;20651;-64
2022/09/08 12:21:39;;;;;;;2.42;1.10;;;24.50;56.70;;;;;;4994814;28;20204;-66
2022/09/08 12:24:24;;;;;;;3.28;1.48;;;24.50;56.60;;;;;;5032557;28;20190;-67
2022/09/08 12:26:59;;;;;;;3.00;1.40;;;24.60;56.50;;;;;;5072032;28;20233;-67
2022/09/08 12:29:43;;;;;;;7.32;2.10;;;24.60;56.50;;;;;;5053820;28;20178;-67
2022/09/08 12:32:30;;;;;;;2.92;1.23;;;24.60;56.40;;;;;;5072254;28;20174;-67
2022/09/08 12:35:05;;;;;;;4.38;1.60;;;24.60;56.40;;;;;;5072365;28;20220;-68
2022/09/08 12:37:39;;;;;;;4.95;1.25;;;24.60;56.40;;;;;;5071362;28;20651;-68
2022/09/08 12:40:20;;;;;;;5.00;1.77;;;24.60;56.20;;;;;;5072241;28;20245;-68
2022/09/08 12:42:51;;;;;;;3.10;1.23;;;24.70;55.90;;;;;;5071569;28;20186;-69
2022/09/08 12:45:40;;;;;;;2.45;1.40;;;24.80;55.80;;;;;;5072605;28;20174;-68
2022/09/08 12:48:32;;;;;;;3.28;1.70;;;24.80;55.70;;;;;;5053968;28;20699;-68
2022/09/08 12:51:16;;;;;;;3.53;1.33;;;24.90;55.50;;;;;;5071367;28;20175;-66
2022/09/08 12:54:07;;;;;;;1.92;1.20;;;25.00;55.50;;;;;;5057502;28;20284;-66
2022/09/08 12:56:53;;;;;;;2.97;1.38;;;25.00;55.20;;;;;;5091917;28;20184;-65
2022/09/08 12:59:52;;;;;;;2.35;1.30;;;25.10;55.00;;;;;;5092383;28;20181;-67
2022/09/08 13:02:55;;;;;;;3.35;1.25;;;25.20;54.80;;;;;;5092505;28;20182;-68
2022/09/08 13:06:00;;;;;;;5.07;1.33;;;25.20;54.60;;;;;;5091551;28;20181;-66
2022/09/08 13:08:31;;;;;;;3.58;1.50;;;25.20;54.60;;;;;;5076824;28;20202;-66
2022/09/08 13:11:11;;;;;;;3.75;1.95;;;25.10;54.60;;;;;;5095072;28;20543;-66
2022/09/08 13:13:43;;;;;;;3.03;1.20;;;25.00;54.70;;;;;;5077427;28;20549;-66
2022/09/08 13:16:13;;;;;;;4.32;1.55;;;25.00;54.60;;;;;;5075681;28;20178;-67
2022/09/08 13:19:03;;;;;;;1.95;1.00;;;25.10;54.50;;;;;;5074881;28;20183;-67
2022/09/08 13:21:40;;;;;;;5.10;1.10;;;25.20;54.40;;;;;;5060525;28;20175;-67
2022/09/08 13:24:26;;;;;;;8.00;1.95;;;25.20;54.20;;;;;;5075741;28;20170;-67
2022/09/08 13:27:28;;;;;;;3.88;1.50;;;25.30;54.00;;;;;;5059815;28;20229;-67
2022/09/08 13:30:08;;;;;;;3.28;0.95;;;25.40;53.80;;;;;;5078229;28;20169;-66
2022/09/08 13:32:39;;;;;;;4.82;1.20;;;25.40;53.70;;;;;;5057084;28;20174;-66